Time;durP1;ratioP1;P1;durP2;ratioP2;P2;SDS_P1;SDS_P2;PMS_P1;PMS_P2;Temp;Humidity;BMP_temperature;BMP_pressure;BME280_temperature;BME280_humidity;BME280_pressure;Samples;Min_cycle;Max_cycle;Signal;HPM_P1;HPM_P2
2021/05/07 00:01:46;;;;;;;233.30;136.60;;;7.80;99.90;;;;;;5020106;28;20204;-82
2021/05/07 00:04:20;;;;;;;254.93;143.88;;;7.80;99.90;;;;;;5023398;28;20239;-82
2021/05/07 00:06:49;;;;;;;207.77;130.07;;;8.00;99.90;;;;;;5022213;28;20208;-82
2021/05/07 00:09:17;;;;;;;240.00;133.95;;;;;;;;;;5025292;28;20200;-82
2021/05/07 00:11:44;;;;;;;243.75;132.57;;;8.00;99.90;;;;;;5030237;28;20666;-82
2021/05/07 00:14:11;;;;;;;154.20;133.90;;;8.10;99.90;;;;;;5029631;28;20224;-82
2021/05/07 00:16:37;;;;;;;143.25;127.95;;;7.90;99.90;;;;;;5026260;28;20275;-82
2021/05/07 00:19:08;;;;;;;147.65;129.93;;;7.90;99.90;;;;;;5024370;28;20201;-83
2021/05/07 00:21:37;;;;;;;156.63;128.35;;;7.80;99.90;;;;;;5024313;28;20188;-82
2021/05/07 00:24:04;;;;;;;199.52;133.30;;;7.70;99.90;;;;;;5024456;28;20318;-83
2021/05/07 00:26:31;;;;;;;223.90;133.90;;;;;;;;;;5025706;28;20310;-82
2021/05/07 00:28:57;;;;;;;239.60;133.98;;;7.90;99.90;;;;;;5023937;28;20200;-81
2021/05/07 00:31:23;;;;;;;234.02;138.70;;;7.80;99.90;;;;;;5029844;28;20231;-81
2021/05/07 00:33:50;;;;;;;242.10;139.77;;;7.70;99.90;;;;;;5033065;28;20224;-82
2021/05/07 00:36:17;;;;;;;259.30;141.20;;;7.70;99.90;;;;;;5034090;28;20208;-82
2021/05/07 00:38:43;;;;;;;255.13;143.63;;;7.60;99.90;;;;;;5033249;28;20208;-82
2021/05/07 00:41:13;;;;;;;278.45;144.00;;;7.60;99.90;;;;;;5032227;28;20215;-82
2021/05/07 00:43:40;;;;;;;273.33;140.98;;;;;;;;;;5033472;28;20270;-82
2021/05/07 00:46:06;;;;;;;257.88;139.68;;;7.50;99.90;;;;;;5033185;28;20220;-82
2021/05/07 00:48:33;;;;;;;261.48;141.38;;;7.50;99.90;;;;;;5033531;28;20219;-81
2021/05/07 00:50:59;;;;;;;343.98;139.75;;;;;;;;;;5032426;28;20234;-81
2021/05/07 00:53:28;;;;;;;284.00;143.05;;;7.50;99.90;;;;;;5027848;28;20232;-82
2021/05/07 00:55:57;;;;;;;336.30;132.20;;;7.40;99.90;;;;;;5023717;28;20681;-83
2021/05/07 00:58:23;;;;;;;306.42;139.95;;;7.30;99.90;;;;;;5024314;28;20204;-82
2021/05/07 01:00:52;;;;;;;338.67;126.55;;;7.40;99.90;;;;;;5026030;28;20209;-82
2021/05/07 01:03:18;;;;;;;333.40;129.98;;;;;;;;;;5027805;28;20285;-82
2021/05/07 01:05:46;;;;;;;282.85;132.85;;;;;;;;;;5025094;28;20228;-81
2021/05/07 01:08:14;;;;;;;339.67;126.00;;;7.50;99.90;;;;;;5028505;28;20208;-83
2021/05/07 01:10:41;;;;;;;271.02;131.90;;;7.60;99.90;;;;;;5025385;28;20236;-80
2021/05/07 01:13:10;;;;;;;281.80;126.05;;;7.60;99.90;;;;;;5026122;28;20220;-81
2021/05/07 01:15:36;;;;;;;277.15;138.80;;;7.60;99.90;;;;;;5024809;28;20201;-82
2021/05/07 01:18:06;;;;;;;285.15;131.13;;;7.40;99.90;;;;;;5024067;28;20288;-82
2021/05/07 01:20:34;;;;;;;266.70;133.73;;;7.60;99.90;;;;;;5023523;28;20204;-82
2021/05/07 01:23:01;;;;;;;274.60;130.60;;;7.50;99.90;;;;;;5025342;28;20201;-82
2021/05/07 01:25:29;;;;;;;264.20;127.82;;;7.50;99.90;;;;;;5024005;28;20221;-82
2021/05/07 01:27:57;;;;;;;272.50;131.13;;;7.50;99.90;;;;;;5027099;28;20223;-82
2021/05/07 01:30:26;;;;;;;261.05;127.32;;;7.50;99.90;;;;;;5030874;28;20283;-81
2021/05/07 01:32:52;;;;;;;349.88;125.70;;;7.40;99.90;;;;;;5032258;28;20229;-83
2021/05/07 01:35:20;;;;;;;332.25;125.57;;;7.60;99.90;;;;;;5027753;28;20204;-81
2021/05/07 01:37:49;;;;;;;252.32;138.23;;;7.50;99.90;;;;;;5025917;28;20208;-81
2021/05/07 01:40:17;;;;;;;238.77;128.63;;;7.50;99.90;;;;;;5025585;28;20208;-82
2021/05/07 01:42:46;;;;;;;356.35;132.73;;;;;;;;;;5023057;28;20219;-82
2021/05/07 01:45:13;;;;;;;241.50;131.10;;;7.50;99.90;;;;;;5022606;28;20219;-82
2021/05/07 01:47:42;;;;;;;212.38;131.20;;;7.50;99.90;;;;;;5021849;28;20245;-81
2021/05/07 01:50:11;;;;;;;256.30;130.18;;;7.50;99.90;;;;;;5021959;28;20204;-82
2021/05/07 01:52:38;;;;;;;243.27;130.23;;;7.40;99.90;;;;;;5021655;28;20299;-81
2021/05/07 01:55:07;;;;;;;246.30;125.80;;;7.40;99.90;;;;;;5021421;28;20220;-81
2021/05/07 01:57:35;;;;;;;259.02;129.00;;;7.20;99.90;;;;;;5021266;28;20205;-81
2021/05/07 02:00:04;;;;;;;245.15;124.63;;;7.30;99.90;;;;;;5020621;28;20203;-81
2021/05/07 02:02:30;;;;;;;242.75;123.40;;;7.20;99.90;;;;;;5020862;28;20212;-81
2021/05/07 02:04:56;;;;;;;253.18;126.10;;;7.30;99.90;;;;;;5020814;28;20236;-81
2021/05/07 02:07:22;;;;;;;252.68;131.75;;;7.30;99.90;;;;;;5024111;28;20224;-81
2021/05/07 02:09:48;;;;;;;262.35;125.22;;;7.30;99.90;;;;;;5014021;28;20710;-81
2021/05/07 02:12:15;;;;;;;263.23;129.02;;;7.20;99.90;;;;;;5016488;28;20230;-82
2021/05/07 02:14:41;;;;;;;342.83;128.60;;;7.30;99.90;;;;;;5020830;28;20261;-81
2021/05/07 02:17:07;;;;;;;287.58;123.75;;;7.20;99.90;;;;;;5023171;28;20552;-80
2021/05/07 02:19:33;;;;;;;363.58;119.07;;;7.20;99.90;;;;;;5032145;28;20200;-80
2021/05/07 02:21:59;;;;;;;273.67;122.10;;;7.20;99.90;;;;;;5031777;28;20208;-80
2021/05/07 02:24:26;;;;;;;268.75;122.68;;;7.20;99.90;;;;;;5027559;28;20239;-81
2021/05/07 02:26:52;;;;;;;261.20;122.78;;;7.30;99.90;;;;;;5026151;28;20258;-82
2021/05/07 02:29:19;;;;;;;267.10;127.20;;;7.20;99.90;;;;;;5024279;28;20541;-82
2021/05/07 02:31:45;;;;;;;245.43;123.63;;;7.20;99.90;;;;;;5023785;28;20208;-82
2021/05/07 02:34:12;;;;;;;342.65;122.10;;;7.30;99.90;;;;;;5022341;28;20228;-82
2021/05/07 02:36:38;;;;;;;272.27;122.53;;;7.40;99.90;;;;;;5021427;28;20200;-82
2021/05/07 02:39:05;;;;;;;276.88;123.78;;;7.30;99.90;;;;;;5022421;28;20204;-81
2021/05/07 02:41:31;;;;;;;292.63;128.77;;;7.30;99.90;;;;;;5020370;28;20208;-80
2021/05/07 02:43:58;;;;;;;303.42;126.05;;;7.30;99.90;;;;;;5022871;28;20225;-81
2021/05/07 02:46:25;;;;;;;312.67;123.60;;;7.10;99.90;;;;;;5024276;28;20238;-82
2021/05/07 02:48:51;;;;;;;280.60;123.45;;;7.10;99.90;;;;;;5023517;28;20211;-83
2021/05/07 02:51:17;;;;;;;292.23;123.32;;;7.10;99.90;;;;;;5022291;28;20208;-83
2021/05/07 02:53:43;;;;;;;270.05;121.25;;;7.10;99.90;;;;;;5021303;28;20227;-83
2021/05/07 02:56:09;;;;;;;361.98;117.40;;;7.10;99.90;;;;;;5021390;28;20204;-83
2021/05/07 02:58:35;;;;;;;321.52;120.93;;;7.00;99.90;;;;;;5022056;28;20200;-82
2021/05/07 03:01:01;;;;;;;318.50;120.78;;;7.20;99.90;;;;;;5023765;28;20216;-82
2021/05/07 03:03:28;;;;;;;320.63;125.40;;;7.70;99.90;;;;;;5022587;28;20332;-82
2021/05/07 03:05:54;;;;;;;367.20;118.93;;;7.00;99.90;;;;;;5022202;28;20256;-82
2021/05/07 03:08:23;;;;;;;348.35;114.65;;;7.10;99.90;;;;;;5019848;28;20235;-82
2021/05/07 03:10:49;;;;;;;334.65;119.03;;;7.10;99.90;;;;;;5018471;28;20215;-82
2021/05/07 03:13:16;;;;;;;322.92;120.43;;;5.70;99.90;;;;;;5024393;28;20224;-81
2021/05/07 03:15:42;;;;;;;325.33;118.25;;;7.10;99.90;;;;;;5014097;28;20196;-81
2021/05/07 03:18:14;;;;;;;316.00;123.05;;;7.10;99.90;;;;;;5014219;28;20578;-81
2021/05/07 03:20:43;;;;;;;365.95;121.15;;;7.10;99.90;;;;;;5014578;28;20203;-81
2021/05/07 03:23:09;;;;;;;350.48;117.13;;;7.20;99.90;;;;;;5015803;28;20227;-82
2021/05/07 03:25:36;;;;;;;324.77;121.15;;;;;;;;;;5019332;28;20273;-82
2021/05/07 03:28:03;;;;;;;364.58;115.07;;;7.30;99.90;;;;;;5020010;28;20189;-83
2021/05/07 03:30:29;;;;;;;365.80;117.65;;;7.30;99.90;;;;;;5020172;28;20215;-82
2021/05/07 03:32:55;;;;;;;364.63;118.32;;;7.40;99.90;;;;;;5022737;28;20208;-82
2021/05/07 03:35:21;;;;;;;363.75;121.10;;;7.40;99.90;;;;;;5025219;28;20233;-82
2021/05/07 03:37:48;;;;;;;354.67;119.40;;;7.40;99.90;;;;;;5020055;28;20659;-81
2021/05/07 03:40:15;;;;;;;360.95;116.68;;;7.50;99.90;;;;;;5027777;28;20205;-83
2021/05/07 03:42:44;;;;;;;333.77;114.20;;;7.50;99.90;;;;;;5030939;28;20205;-81
2021/05/07 03:45:11;;;;;;;379.13;161.20;;;7.80;99.90;;;;;;5024638;28;20443;-82
2021/05/07 03:47:37;;;;;;;370.83;135.55;;;7.50;99.90;;;;;;5019573;28;20243;-81
2021/05/07 03:50:04;;;;;;;370.75;130.07;;;7.60;99.90;;;;;;5021963;28;20200;-82
2021/05/07 03:52:30;;;;;;;365.95;126.88;;;7.60;99.90;;;;;;5019982;28;20211;-82
2021/05/07 03:54:57;;;;;;;357.35;123.07;;;7.60;99.90;;;;;;5019401;28;20224;-82
2021/05/07 03:57:25;;;;;;;358.92;126.07;;;7.50;99.90;;;;;;5020252;28;20200;-81
2021/05/07 03:59:51;;;;;;;331.63;130.57;;;;;;;;;;5020060;28;20261;-81
2021/05/07 04:02:17;;;;;;;364.50;124.63;;;7.50;99.90;;;;;;5019300;28;20670;-81
2021/05/07 04:04:45;;;;;;;361.30;128.27;;;7.20;99.90;;;;;;5017509;28;20232;-81
2021/05/07 04:07:12;;;;;;;365.83;120.07;;;7.10;99.90;;;;;;5020536;28;20228;-81
2021/05/07 04:09:41;;;;;;;367.17;125.20;;;7.10;99.90;;;;;;5024054;28;20321;-82
2021/05/07 04:12:14;;;;;;;358.17;120.55;;;7.20;99.90;;;;;;5027060;28;20256;-81
2021/05/07 04:14:40;;;;;;;352.55;123.47;;;7.10;99.90;;;;;;5027366;28;20232;-80
2021/05/07 04:17:07;;;;;;;350.40;121.18;;;7.00;99.90;;;;;;5030582;28;20257;-80
2021/05/07 04:19:33;;;;;;;330.73;122.43;;;7.00;99.90;;;;;;5023749;28;20230;-80
2021/05/07 04:21:59;;;;;;;337.33;118.63;;;7.10;99.90;;;;;;5028363;28;20576;-80
2021/05/07 04:24:25;;;;;;;401.67;211.85;;;;;;;;;;5027413;28;20438;-81
2021/05/07 04:26:53;;;;;;;402.52;235.35;;;6.90;99.90;;;;;;5025781;28;20478;-81
2021/05/07 04:29:21;;;;;;;350.42;146.02;;;7.10;99.90;;;;;;5025416;28;20204;-81
2021/05/07 04:31:47;;;;;;;299.42;129.77;;;7.00;99.90;;;;;;5025390;28;20204;-81
2021/05/07 04:34:14;;;;;;;324.10;124.63;;;;;;;;;;5024144;28;20243;-81
2021/05/07 04:36:40;;;;;;;376.95;116.10;;;7.00;99.90;;;;;;5023705;28;20207;-82
2021/05/07 04:39:06;;;;;;;330.20;116.95;;;7.00;99.90;;;;;;5022842;28;20213;-82
2021/05/07 04:41:33;;;;;;;368.30;117.63;;;7.10;99.90;;;;;;5024015;28;20540;-82
2021/05/07 04:43:59;;;;;;;360.55;115.50;;;7.20;99.90;;;;;;5023815;28;20224;-82
2021/05/07 04:46:26;;;;;;;363.17;110.78;;;7.30;99.90;;;;;;5024606;28;20224;-82
2021/05/07 04:48:52;;;;;;;367.25;116.55;;;7.30;99.90;;;;;;5024071;28;20212;-82
2021/05/07 04:51:18;;;;;;;360.13;116.75;;;7.40;99.90;;;;;;5023995;28;20215;-81
2021/05/07 04:53:45;;;;;;;372.08;119.20;;;7.40;99.90;;;;;;5026524;28;20225;-80
2021/05/07 04:56:11;;;;;;;368.73;118.47;;;7.50;99.90;;;;;;5027266;28;20201;-81
2021/05/07 04:58:37;;;;;;;358.70;122.85;;;7.40;99.90;;;;;;5023988;28;20243;-82
2021/05/07 05:01:03;;;;;;;347.60;125.80;;;7.50;99.90;;;;;;5024900;28;20204;-82
2021/05/07 05:03:30;;;;;;;368.63;145.20;;;7.40;99.90;;;;;;5036775;23;20231;-84
2021/05/07 05:05:56;;;;;;;362.30;116.38;;;7.50;99.90;;;;;;4960342;29;20222;-84
2021/05/07 05:08:23;;;;;;;342.30;118.72;;;7.50;99.90;;;;;;4969005;29;20197;-84
2021/05/07 05:10:49;;;;;;;333.25;116.03;;;7.50;99.90;;;;;;4964750;29;20206;-84
2021/05/07 05:13:15;;;;;;;323.33;116.95;;;7.00;99.90;;;;;;4963424;28;20233;-85
2021/05/07 05:15:41;;;;;;;362.98;112.38;;;6.90;99.90;;;;;;4961626;28;20214;-84
2021/05/07 05:18:07;;;;;;;266.30;111.47;;;7.00;99.90;;;;;;4960183;28;20217;-84
2021/05/07 05:20:34;;;;;;;307.35;115.40;;;6.90;99.90;;;;;;4960604;28;20210;-84
2021/05/07 05:23:00;;;;;;;289.85;111.93;;;6.90;99.90;;;;;;4961424;28;20681;-85
2021/05/07 05:25:26;;;;;;;275.35;111.78;;;6.80;99.90;;;;;;4960264;28;20321;-85
2021/05/07 05:27:53;;;;;;;280.63;114.03;;;6.90;99.90;;;;;;4958653;28;20214;-84
2021/05/07 05:30:21;;;;;;;271.52;108.20;;;6.90;99.90;;;;;;4959419;28;20206;-84
2021/05/07 05:32:47;;;;;;;282.15;109.82;;;7.00;99.90;;;;;;4959290;28;20588;-85
2021/05/07 05:35:15;;;;;;;261.25;109.68;;;6.80;99.90;;;;;;4958918;28;20226;-85
2021/05/07 05:37:42;;;;;;;247.38;110.22;;;6.90;99.90;;;;;;4961130;28;20226;-85
2021/05/07 05:40:09;;;;;;;261.95;109.85;;;7.10;99.90;;;;;;4958772;28;20206;-84
2021/05/07 05:42:35;;;;;;;359.92;106.07;;;7.20;99.90;;;;;;4959336;28;20206;-85
2021/05/07 05:45:02;;;;;;;294.67;114.00;;;7.40;99.90;;;;;;4959145;28;20298;-84
2021/05/07 05:47:29;;;;;;;315.38;113.18;;;7.50;99.90;;;;;;4958956;28;20727;-84
2021/05/07 05:49:55;;;;;;;298.67;110.80;;;;;;;;;;4964879;28;20206;-84
2021/05/07 05:52:22;;;;;;;319.73;112.95;;;7.40;99.90;;;;;;4962709;29;20286;-83
2021/05/07 05:54:49;;;;;;;357.45;106.45;;;;;;;;;;4962193;28;20611;-84
2021/05/07 05:57:15;;;;;;;351.98;102.97;;;7.50;99.90;;;;;;4963346;29;20203;-84
2021/05/07 05:59:41;;;;;;;354.02;108.32;;;7.30;99.90;;;;;;4965011;28;20259;-84
2021/05/07 06:02:08;;;;;;;341.58;105.25;;;7.50;99.90;;;;;;4966545;28;20206;-84
2021/05/07 06:04:34;;;;;;;350.20;103.00;;;7.40;99.90;;;;;;4980908;28;20281;-83
2021/05/07 06:07:02;;;;;;;318.00;106.43;;;7.40;99.90;;;;;;4993142;28;20226;-85
2021/05/07 06:09:43;;;;;;;340.35;107.05;;;7.50;99.90;;;;;;4987541;28;20241;-85
2021/05/07 06:12:10;;;;;;;344.35;103.65;;;7.50;99.90;;;;;;4985853;28;20206;-84
2021/05/07 06:14:37;;;;;;;353.35;104.18;;;7.40;99.90;;;;;;4987692;28;20241;-83
2021/05/07 06:17:03;;;;;;;332.30;102.25;;;7.20;99.90;;;;;;4987442;28;20209;-83
2021/05/07 06:19:31;;;;;;;342.30;105.68;;;7.30;99.90;;;;;;4984986;28;20228;-84
2021/05/07 06:21:58;;;;;;;341.58;108.18;;;7.20;99.90;;;;;;4990571;28;20205;-83
2021/05/07 06:24:24;;;;;;;311.40;107.75;;;7.20;99.90;;;;;;4997195;28;20208;-83
2021/05/07 06:26:51;;;;;;;351.83;103.18;;;7.50;99.90;;;;;;4997178;28;20236;-83
2021/05/07 06:29:17;;;;;;;349.35;102.80;;;7.40;99.90;;;;;;4997188;28;20192;-82
2021/05/07 06:31:44;;;;;;;353.60;101.72;;;7.30;99.90;;;;;;4997250;28;20185;-83
2021/05/07 06:34:12;;;;;;;355.48;102.03;;;;;;;;;;4996902;28;20269;-82
2021/05/07 06:36:39;;;;;;;357.63;117.00;;;;;;;;;;4995526;28;20216;-84
2021/05/07 06:39:06;;;;;;;299.05;102.10;;;7.00;99.90;;;;;;4996464;28;20186;-84
2021/05/07 06:41:32;;;;;;;110.68;92.97;;;7.10;99.90;;;;;;4991213;28;20240;-84
2021/05/07 06:43:58;;;;;;;295.40;113.13;;;7.20;99.90;;;;;;4986104;28;20692;-84
2021/05/07 06:46:25;;;;;;;303.10;108.95;;;7.00;99.90;;;;;;4984518;28;20222;-84
2021/05/07 06:48:51;;;;;;;320.70;106.93;;;7.00;99.90;;;;;;4983761;28;20218;-85
2021/05/07 06:51:17;;;;;;;351.02;101.35;;;7.00;99.90;;;;;;4984447;28;20205;-83
2021/05/07 06:53:43;;;;;;;275.08;107.35;;;7.00;99.90;;;;;;4983878;28;20233;-84
2021/05/07 06:56:10;;;;;;;265.80;104.90;;;7.20;99.90;;;;;;4983937;28;20261;-85
2021/05/07 06:58:38;;;;;;;278.52;103.10;;;6.80;99.90;;;;;;4985123;28;20698;-84
2021/05/07 07:01:04;;;;;;;265.67;112.90;;;;;;;;;;4985663;28;20206;-84
2021/05/07 07:03:31;;;;;;;259.23;105.10;;;6.60;99.90;;;;;;4987250;28;20735;-84
2021/05/07 07:05:57;;;;;;;237.77;101.82;;;8.30;99.90;;;;;;4995295;28;20231;-83
2021/05/07 07:08:24;;;;;;;203.90;100.78;;;6.50;99.90;;;;;;4995599;28;20197;-84
2021/05/07 07:10:50;;;;;;;227.55;98.97;;;6.40;99.90;;;;;;4995969;28;20189;-83
2021/05/07 07:13:16;;;;;;;277.27;106.93;;;6.10;99.90;;;;;;4996964;28;20212;-83
2021/05/07 07:15:44;;;;;;;274.65;100.57;;;;;;;;;;4993039;28;20235;-84
2021/05/07 07:18:10;;;;;;;270.02;99.88;;;;;;;;;;4994510;28;20205;-83
2021/05/07 07:20:38;;;;;;;289.77;98.97;;;;;;;;;;4995356;28;20204;-83
2021/05/07 07:23:04;;;;;;;290.27;99.30;;;5.50;99.90;;;;;;4995364;28;20193;-83
2021/05/07 07:25:30;;;;;;;280.77;95.20;;;5.30;99.90;;;;;;4994282;28;20260;-83
2021/05/07 07:27:56;;;;;;;304.60;94.90;;;5.40;99.90;;;;;;4992856;28;20205;-83
2021/05/07 07:30:23;;;;;;;349.83;96.20;;;4.90;99.90;;;;;;4993254;28;20209;-83
2021/05/07 07:32:49;;;;;;;356.88;89.78;;;5.20;99.90;;;;;;4992417;28;20210;-83
2021/05/07 07:35:16;;;;;;;71.60;64.53;;;5.30;99.90;;;;;;4990263;28;20239;-83
2021/05/07 07:37:43;;;;;;;120.00;81.40;;;5.30;99.90;;;;;;4987951;28;20212;-83
2021/05/07 07:40:10;;;;;;;260.10;89.95;;;5.20;99.90;;;;;;4988649;28;20210;-83
2021/05/07 07:42:36;;;;;;;354.73;105.95;;;5.20;99.90;;;;;;4987752;28;20924;-83
2021/05/07 07:45:03;;;;;;;311.75;103.18;;;5.10;99.90;;;;;;4989775;28;20481;-83
2021/05/07 07:47:29;;;;;;;304.55;86.95;;;5.20;99.90;;;;;;4987820;28;20218;-83
2021/05/07 07:49:55;;;;;;;293.27;91.38;;;5.40;99.90;;;;;;4986974;28;20210;-83
2021/05/07 07:52:22;;;;;;;329.33;89.38;;;4.90;99.90;;;;;;4984271;28;20205;-83
2021/05/07 07:54:48;;;;;;;329.67;90.80;;;4.80;99.90;;;;;;4986434;28;20226;-84
2021/05/07 07:57:15;;;;;;;292.58;90.20;;;4.50;99.90;;;;;;4989624;28;20202;-84
2021/05/07 07:59:41;;;;;;;350.48;92.50;;;4.70;99.90;;;;;;4991803;28;20202;-83
2021/05/07 08:02:07;;;;;;;339.75;83.35;;;4.80;99.90;;;;;;4991875;28;20212;-84
2021/05/07 08:04:33;;;;;;;325.08;79.70;;;4.80;99.90;;;;;;4991519;28;20222;-83
2021/05/07 08:07:00;;;;;;;321.65;75.88;;;4.80;99.90;;;;;;4991722;28;20225;-82
2021/05/07 08:09:26;;;;;;;283.55;86.75;;;4.90;99.90;;;;;;4992051;28;20210;-83
2021/05/07 08:11:54;;;;;;;150.10;82.43;;;;;;;;;;4991685;28;20216;-84
2021/05/07 08:14:20;;;;;;;321.85;85.00;;;4.90;99.90;;;;;;4991829;28;20229;-84
2021/05/07 08:16:46;;;;;;;343.85;91.43;;;5.00;99.90;;;;;;4994571;28;20206;-84
2021/05/07 08:19:13;;;;;;;379.75;131.63;;;5.00;99.90;;;;;;4997418;28;20445;-84
2021/05/07 08:21:40;;;;;;;364.52;96.90;;;5.00;99.90;;;;;;4997638;28;20227;-84
2021/05/07 08:24:07;;;;;;;341.77;81.28;;;5.00;99.90;;;;;;4997342;28;20225;-84
2021/05/07 08:26:33;;;;;;;342.10;83.25;;;;;;;;;;4989587;28;20226;-84
2021/05/07 08:29:00;;;;;;;328.92;88.55;;;5.00;99.90;;;;;;4987934;28;20209;-84
2021/05/07 08:31:27;;;;;;;333.38;80.43;;;;;;;;;;4987960;28;20206;-84
2021/05/07 08:33:53;;;;;;;346.63;79.63;;;;;;;;;;4987934;28;20225;-84
2021/05/07 08:36:20;;;;;;;131.85;82.15;;;;;;;;;;4987728;28;20208;-83
2021/05/07 08:38:46;;;;;;;291.58;95.70;;;4.90;99.90;;;;;;4987760;28;20244;-83
2021/05/07 08:41:13;;;;;;;57.83;53.22;;;;;;;;;;4987047;28;20210;-84
2021/05/07 08:43:39;;;;;;;225.05;89.97;;;;;;;;;;4986830;28;20636;-83
2021/05/07 08:46:08;;;;;;;256.08;91.03;;;4.90;99.90;;;;;;4987786;28;20218;-83
2021/05/07 08:48:35;;;;;;;358.00;94.78;;;4.70;99.90;;;;;;4990157;28;20246;-83
2021/05/07 08:51:02;;;;;;;352.90;81.57;;;4.80;99.90;;;;;;4991591;28;20232;-83
2021/05/07 08:53:29;;;;;;;343.25;92.78;;;;;;;;;;4993253;28;20209;-83
2021/05/07 08:55:57;;;;;;;52.08;48.10;;;4.40;99.90;;;;;;4995570;28;20210;-83
2021/05/07 08:58:23;;;;;;;83.28;67.18;;;;;;;;;;4991798;28;20206;-84
2021/05/07 09:00:50;;;;;;;133.95;76.68;;;4.20;99.90;;;;;;4985982;28;20206;-84
2021/05/07 09:03:17;;;;;;;403.45;144.80;;;3.70;99.90;;;;;;4982989;28;20453;-84
2021/05/07 09:05:43;;;;;;;220.05;97.72;;;3.10;99.90;;;;;;4990095;28;20193;-84
2021/05/07 09:08:10;;;;;;;113.32;81.80;;;4.00;99.90;;;;;;4985549;28;20198;-84
2021/05/07 09:10:53;;;;;;;98.68;76.93;;;3.90;99.90;;;;;;4984916;28;20213;-83
2021/05/07 09:13:32;;;;;;;110.40;79.95;;;;;;;;;;4984628;28;20639;-82
2021/05/07 09:16:10;;;;;;;78.15;65.78;;;3.50;99.90;;;;;;4985179;28;20225;-84
2021/05/07 09:18:45;;;;;;;204.32;82.93;;;;;;;;;;4985849;28;20259;-84
2021/05/07 09:24:32;;;;;;;119.60;76.32;;;;;;;;;;4944374;29;20215;-83
2021/05/07 09:27:00;;;;;;;264.40;81.63;;;;;;;;;;4917569;29;20294;-84
2021/05/07 09:29:31;;;;;;;110.05;67.80;;;3.20;99.90;;;;;;4972105;28;20213;-84
2021/05/07 09:32:00;;;;;;;203.38;77.97;;;3.20;99.90;;;;;;4982437;28;20730;-84
2021/05/07 09:34:33;;;;;;;86.55;62.97;;;3.00;99.90;;;;;;4980388;28;20249;-84
2021/05/07 09:36:59;;;;;;;93.13;64.28;;;3.40;99.90;;;;;;4980984;28;20202;-84
2021/05/07 09:39:27;;;;;;;81.03;63.25;;;3.00;99.90;;;;;;4981123;28;20201;-84
2021/05/07 09:41:54;;;;;;;121.43;69.93;;;3.00;99.90;;;;;;4982426;28;20272;-84
2021/05/07 09:44:22;;;;;;;114.70;72.63;;;2.80;99.90;;;;;;4981012;28;20267;-82
2021/05/07 09:46:49;;;;;;;192.88;75.30;;;2.90;99.90;;;;;;4977563;28;20727;-88
2021/05/07 09:49:23;;;;;;;215.63;75.55;;;2.80;99.90;;;;;;4979445;28;20313;-88
2021/05/07 09:51:50;;;;;;;110.00;65.50;;;2.90;99.90;;;;;;4977648;28;20213;-88
2021/05/07 09:54:16;;;;;;;220.07;100.73;;;2.80;99.90;;;;;;4979562;28;20442;-89
2021/05/07 09:56:43;;;;;;;116.90;79.38;;;2.80;99.90;;;;;;4979549;28;20932;-88
2021/05/07 09:59:10;;;;;;;111.18;70.60;;;2.80;99.90;;;;;;4982702;28;20206;-84
2021/05/07 10:01:37;;;;;;;119.63;71.97;;;;;;;;;;4983113;28;20269;-87
2021/05/07 10:04:07;;;;;;;301.95;75.22;;;;;;;;;;4983973;28;20234;-87
2021/05/07 10:06:33;;;;;;;350.50;81.72;;;;;;;;;;4979051;28;20321;-88
2021/05/07 10:09:01;;;;;;;354.15;82.68;;;3.30;99.90;;;;;;4978927;28;20730;-83
2021/05/07 10:11:40;;;;;;;295.15;84.78;;;3.30;99.90;;;;;;4983090;28;20742;-83
2021/05/07 10:14:09;;;;;;;300.90;83.13;;;3.40;99.90;;;;;;4981950;28;20236;-89
2021/05/07 10:16:36;;;;;;;258.38;85.28;;;3.70;99.90;;;;;;4979328;28;20202;-86
2021/05/07 10:19:04;;;;;;;144.23;74.47;;;3.50;99.90;;;;;;4977622;28;20263;-84
2021/05/07 10:21:38;;;;;;;177.02;76.45;;;4.50;99.90;;;;;;4986942;28;20202;-88
2021/05/07 10:24:06;;;;;;;144.95;72.68;;;3.70;99.90;;;;;;4978516;28;20279;-88
2021/05/07 10:26:40;;;;;;;132.93;75.65;;;3.80;99.90;;;;;;4981503;28;20225;-87
2021/05/07 10:29:20;;;;;;;189.13;84.75;;;3.90;99.90;;;;;;4978868;28;20213;-87
2021/05/07 10:31:49;;;;;;;183.13;77.85;;;4.10;99.90;;;;;;4978446;28;20209;-87
2021/05/07 10:34:16;;;;;;;306.63;83.25;;;4.00;99.90;;;;;;4981314;28;20230;-87
2021/05/07 10:36:44;;;;;;;169.20;88.53;;;4.00;99.90;;;;;;4980829;28;20221;-87
2021/05/07 10:39:21;;;;;;;151.43;83.60;;;4.10;99.90;;;;;;4985659;28;20253;-89
2021/05/07 10:41:49;;;;;;;141.82;83.95;;;4.60;99.90;;;;;;4996766;28;20205;-89
2021/05/07 10:44:15;;;;;;;172.70;98.82;;;4.60;99.90;;;;;;4994805;28;20254;-87
2021/05/07 10:46:43;;;;;;;144.05;85.60;;;4.30;99.90;;;;;;4982650;28;20221;-87
2021/05/07 10:49:10;;;;;;;157.75;93.45;;;4.60;99.90;;;;;;4981389;28;20695;-88
2021/05/07 10:51:37;;;;;;;100.40;84.18;;;5.20;99.90;;;;;;4989118;28;20228;-87
2021/05/07 10:54:08;;;;;;;77.80;70.85;;;5.50;99.90;;;;;;4993786;28;20226;-88
2021/05/07 10:56:37;;;;;;;77.97;70.70;;;5.70;99.90;;;;;;4992390;28;20190;-89
2021/05/07 10:59:14;;;;;;;74.50;68.30;;;5.70;99.90;;;;;;4988493;28;20205;-88
2021/05/07 11:01:41;;;;;;;86.63;79.22;;;;;;;;;;4986312;28;20209;-88
2021/05/07 11:04:09;;;;;;;95.10;85.68;;;6.00;99.90;;;;;;4988460;28;20240;-89
2021/05/07 11:06:40;;;;;;;89.32;81.25;;;6.00;99.90;;;;;;4993231;28;20221;-89
2021/05/07 11:09:20;;;;;;;88.57;80.18;;;6.00;99.90;;;;;;4992478;28;20209;-88
2021/05/07 11:11:48;;;;;;;98.80;88.75;;;6.30;99.90;;;;;;4992128;28;20320;-89
2021/05/07 11:14:16;;;;;;;130.75;104.72;;;6.60;99.90;;;;;;4987562;28;20229;-89
2021/05/07 11:16:43;;;;;;;174.50;127.47;;;6.20;99.90;;;;;;4982621;28;20213;-89
2021/05/07 11:19:20;;;;;;;116.18;98.63;;;;;;;;;;4984280;28;20210;-88
2021/05/07 11:21:49;;;;;;;122.68;100.50;;;6.40;99.90;;;;;;4983849;28;20560;-85
2021/05/07 11:24:16;;;;;;;114.10;101.75;;;;;;;;;;4978256;28;20234;-84
2021/05/07 11:26:42;;;;;;;111.88;99.57;;;6.70;99.90;;;;;;4982655;28;20221;-85
2021/05/07 11:29:09;;;;;;;107.80;96.72;;;6.70;99.90;;;;;;4978873;28;20217;-85
2021/05/07 11:31:35;;;;;;;110.47;99.07;;;6.70;99.90;;;;;;4976880;28;20205;-86
2021/05/07 11:34:03;;;;;;;110.13;98.00;;;6.80;99.90;;;;;;4980734;28;20240;-87
2021/05/07 11:36:29;;;;;;;85.43;78.93;;;7.00;99.90;;;;;;4984101;28;20205;-86
2021/05/07 11:38:55;;;;;;;92.28;84.97;;;7.40;99.90;;;;;;4982849;28;20205;-86
2021/05/07 11:41:23;;;;;;;84.80;78.22;;;7.00;99.90;;;;;;4978755;28;20213;-86
2021/05/07 11:43:50;;;;;;;105.80;96.90;;;6.80;99.90;;;;;;4981998;28;20830;-87
2021/05/07 11:46:18;;;;;;;71.57;66.43;;;7.40;99.90;;;;;;4986281;28;20210;-87
2021/05/07 11:48:47;;;;;;;82.68;77.05;;;7.30;99.90;;;;;;4988880;28;20210;-86
2021/05/07 11:51:13;;;;;;;181.32;131.60;;;;;;;;;;4983864;28;20228;-88
2021/05/07 11:53:40;;;;;;;125.15;111.93;;;;;;;;;;4981420;28;20221;-88
2021/05/07 11:56:18;;;;;;;125.43;114.20;;;7.80;99.90;;;;;;4982430;28;20209;-88
2021/05/07 11:58:51;;;;;;;243.02;163.20;;;8.00;99.90;;;;;;4980505;28;20197;-88
2021/05/07 12:01:19;;;;;;;199.23;128.43;;;;;;;;;;4992974;28;20186;-88
2021/05/07 12:03:47;;;;;;;100.88;93.53;;;8.10;99.90;;;;;;4986278;28;20221;-88
2021/05/07 12:06:19;;;;;;;134.85;121.43;;;8.20;99.90;;;;;;4988906;28;20304;-88
2021/05/07 12:08:51;;;;;;;246.43;157.15;;;8.10;99.90;;;;;;4988658;28;20224;-88
2021/05/07 12:11:18;;;;;;;239.45;154.07;;;8.20;99.90;;;;;;4987372;28;20216;-89
2021/05/07 12:13:46;;;;;;;209.57;150.68;;;8.20;99.90;;;;;;4986603;28;20222;-88
2021/05/07 12:16:16;;;;;;;175.52;142.98;;;8.60;99.90;;;;;;4989508;28;20214;-88
2021/05/07 12:18:52;;;;;;;244.95;154.25;;;8.90;99.90;;;;;;4991973;28;20205;-88
2021/05/07 12:21:19;;;;;;;231.68;153.95;;;8.90;99.90;;;;;;4991119;28;20202;-88
2021/05/07 12:23:48;;;;;;;255.93;159.77;;;9.10;99.90;;;;;;4989270;28;20249;-85
2021/05/07 12:26:15;;;;;;;264.70;162.50;;;9.10;99.90;;;;;;4985727;28;20186;-86
2021/05/07 12:28:52;;;;;;;256.83;153.60;;;8.80;99.90;;;;;;4988676;28;20278;-87
2021/05/07 12:31:18;;;;;;;318.38;140.88;;;;;;;;;;4984323;28;20217;-88
2021/05/07 12:33:45;;;;;;;361.42;104.45;;;6.20;99.90;;;;;;4982253;28;20236;-88
2021/05/07 12:36:16;;;;;;;344.13;105.15;;;6.90;99.90;;;;;;4986154;28;20210;-88
2021/05/07 12:38:43;;;;;;;314.15;103.43;;;6.40;99.90;;;;;;4989387;28;20209;-87